Time;durP1;ratioP1;P1;durP2;ratioP2;P2;SDS_P1;SDS_P2;PMS_P1;PMS_P2;Temp;Humidity;BMP_temperature;BMP_pressure;BME280_temperature;BME280_humidity;BME280_pressure;Samples;Min_cycle;Max_cycle;Signal;HPM_P1;HPM_P2
2022/04/13 00:02:21;;;;;;;7.35;2.78;;;;;;;13.24;57.53;101013.66;5032844;28;20526;-70
2022/04/13 00:04:48;;;;;;;5.95;2.30;;;;;;;13.18;57.51;101014.78;5031499;28;20050;-70
2022/04/13 00:07:15;;;;;;;5.25;2.25;;;;;;;13.13;57.56;101016.75;5031655;28;20196;-70
2022/04/13 00:09:42;;;;;;;9.73;3.17;;;;;;;13.07;57.70;101012.53;5030437;28;20097;-70
2022/04/13 00:12:11;;;;;;;5.88;2.55;;;;;;;13.02;57.84;101017.16;5031579;28;20503;-70
2022/04/13 00:14:38;;;;;;;6.72;2.63;;;;;;;12.97;58.09;101025.25;5030826;28;20049;-69
2022/04/13 00:17:05;;;;;;;11.18;3.17;;;;;;;12.93;58.30;101020.13;5031749;28;20042;-69
2022/04/13 00:19:33;;;;;;;5.90;2.45;;;;;;;12.90;58.27;101026.41;5031550;28;20045;-68
2022/04/13 00:22:03;;;;;;;6.25;2.83;;;;;;;12.89;58.64;101019.38;5032357;28;20077;-70
2022/04/13 00:24:30;;;;;;;8.18;3.00;;;;;;;12.88;58.61;101017.66;5027323;28;20117;-68
2022/04/13 00:26:58;;;;;;;6.45;2.90;;;;;;;12.89;58.59;101019.38;5032294;28;20077;-69
2022/04/13 00:29:25;;;;;;;11.38;2.78;;;;;;;12.89;58.57;101022.91;5028448;28;20819;-69
2022/04/13 00:31:52;;;;;;;7.82;2.50;;;;;;;12.91;58.83;101014.91;5031448;28;20429;-70
2022/04/13 00:34:19;;;;;;;8.45;2.90;;;;;;;12.93;58.94;101021.00;5030456;28;21124;-69
2022/04/13 00:36:47;;;;;;;9.38;2.70;;;;;;;12.93;58.92;101026.31;5030623;28;20049;-69
2022/04/13 00:39:14;;;;;;;7.00;2.97;;;;;;;12.91;59.05;101024.66;5031497;28;20038;-68
2022/04/13 00:41:41;;;;;;;6.88;2.75;;;;;;;12.87;59.12;101037.97;5030610;28;20769;-68
2022/04/13 00:44:10;;;;;;;11.55;3.00;;;;;;;12.80;59.11;101038.25;5027640;28;20072;-67
2022/04/13 00:46:38;;;;;;;10.80;3.40;;;;;;;12.70;59.23;101032.44;5031700;28;20397;-67
2022/04/13 00:49:07;;;;;;;7.78;3.05;;;;;;;12.63;59.25;101037.09;5030664;28;20037;-67
2022/04/13 00:51:41;;;;;;;6.82;2.78;;;;;;;12.56;59.35;101044.38;5030704;28;20135;-68
2022/04/13 00:54:13;;;;;;;8.38;3.45;;;;;;;12.51;59.36;101045.44;5030423;28;20038;-67
2022/04/13 00:56:43;;;;;;;6.78;2.90;;;;;;;12.49;59.72;101036.69;5031873;28;20045;-68
2022/04/13 00:59:13;;;;;;;7.10;3.58;;;;;;;12.46;59.77;101040.31;5030661;28;20045;-68
2022/04/13 01:01:48;;;;;;;6.22;3.05;;;;;;;12.48;59.97;101049.06;5031363;28;20041;-67
2022/04/13 01:04:16;;;;;;;11.13;3.45;;;;;;;12.48;60.17;101050.84;5029678;28;20046;-66
2022/04/13 01:06:44;;;;;;;5.75;3.22;;;;;;;12.49;60.04;101060.50;5028844;28;20038;-67
2022/04/13 01:09:15;;;;;;;5.97;3.15;;;;;;;12.50;60.21;101059.59;5030486;28;20465;-67
2022/04/13 01:11:43;;;;;;;8.05;3.08;;;;;;;12.51;60.18;101063.97;5031625;28;20050;-67
2022/04/13 01:14:10;;;;;;;10.52;3.53;;;;;;;12.51;60.34;101066.59;5029790;28;20511;-68
2022/04/13 01:16:39;;;;;;;6.53;3.42;;;;;;;12.49;60.02;101068.44;5031743;28;20041;-69
2022/04/13 01:19:08;;;;;;;10.68;3.70;;;;;;;12.45;60.15;101075.59;5027661;28;20080;-67
2022/04/13 01:21:42;;;;;;;7.90;3.40;;;;;;;12.41;60.29;101077.50;5030261;28;20050;-69
2022/04/13 01:24:09;;;;;;;8.85;3.15;;;;;;;12.36;60.09;101078.56;5028652;28;20791;-68
2022/04/13 01:26:37;;;;;;;9.80;3.85;;;;;;;12.32;60.38;101071.66;5030798;28;20046;-68
2022/04/13 01:29:05;;;;;;;11.23;3.58;;;;;;;12.29;60.44;101077.06;5029800;28;20040;-68
2022/04/13 01:31:33;;;;;;;6.93;3.03;;;;;;;12.24;60.57;101080.72;5027572;28;20034;-69
2022/04/13 01:34:00;;;;;;;7.30;3.03;;;;;;;12.21;60.75;101078.16;5030527;28;20133;-69
2022/04/13 01:36:29;;;;;;;8.35;3.53;;;;;;;12.16;60.71;101084.53;5026750;28;20582;-68
2022/04/13 01:38:57;;;;;;;7.63;3.42;;;;;;;12.11;60.90;101092.59;5030389;28;20046;-69
2022/04/13 01:41:24;;;;;;;9.48;3.80;;;;;;;12.07;60.80;101097.13;5027606;28;20042;-69
2022/04/13 01:43:51;;;;;;;8.40;3.47;;;;;;;12.05;61.08;101106.00;5027423;28;20042;-68
2022/04/13 01:46:18;;;;;;;11.00;3.60;;;;;;;12.02;61.17;101099.06;5028516;28;20037;-69
2022/04/13 01:48:45;;;;;;;6.80;3.60;;;;;;;11.98;61.17;101100.06;5031987;28;20042;-68
2022/04/13 01:51:12;;;;;;;8.68;3.80;;;;;;;11.95;61.25;101098.34;5033438;28;20046;-69
2022/04/13 01:53:39;;;;;;;11.85;3.78;;;;;;;11.93;61.40;101102.81;5031725;28;20512;-67
2022/04/13 01:56:06;;;;;;;7.93;3.72;;;;;;;11.93;61.30;101096.69;5032272;28;20463;-67
2022/04/13 01:58:33;;;;;;;9.13;3.92;;;;;;;11.93;61.54;101117.81;5033414;28;20483;-68
2022/04/13 02:01:01;;;;;;;8.68;3.70;;;;;;;11.93;61.65;101107.25;5034103;28;20400;-69
2022/04/13 02:03:28;;;;;;;10.02;3.67;;;;;;;11.93;61.69;101108.09;5034041;28;20549;-68
2022/04/13 02:05:55;;;;;;;11.23;3.90;;;;;;;11.93;61.83;101109.91;5032716;28;20054;-67
2022/04/13 02:08:23;;;;;;;9.50;3.50;;;;;;;11.96;61.82;101120.34;5032993;28;20128;-67
2022/04/13 02:10:50;;;;;;;9.02;3.25;;;;;;;11.95;61.95;101116.00;5031089;28;20120;-68
2022/04/13 02:13:22;;;;;;;8.48;3.63;;;;;;;11.96;61.96;101121.22;5033164;28;20050;-68
2022/04/13 02:15:50;;;;;;;9.23;3.63;;;;;;;11.98;61.92;101123.84;5030804;28;20058;-67
2022/04/13 02:18:18;;;;;;;7.63;3.72;;;;;;;11.99;61.87;101130.00;5025415;28;20042;-67
2022/04/13 02:20:45;;;;;;;9.85;4.05;;;;;;;11.99;62.18;101136.13;5031644;28;20042;-68
2022/04/13 02:23:14;;;;;;;8.75;3.65;;;;;;;11.99;61.75;101133.50;5027881;28;20050;-67
2022/04/13 02:25:41;;;;;;;10.07;4.10;;;;;;;11.99;61.90;101127.38;5025720;28;20081;-67
2022/04/13 02:28:08;;;;;;;10.70;4.35;;;;;;;12.01;61.97;101130.78;5024444;28;20452;-68
2022/04/13 02:30:36;;;;;;;8.48;3.67;;;;;;;12.03;62.07;101137.78;5023195;28;20116;-68
2022/04/13 02:33:03;;;;;;;7.55;3.40;;;;;;;12.05;62.17;101133.31;5029674;28;20038;-69
2022/04/13 02:35:30;;;;;;;6.68;3.60;;;;;;;12.06;62.21;101135.03;5024860;28;20053;-70
2022/04/13 02:37:57;;;;;;;6.80;3.42;;;;;;;12.07;62.25;101139.41;5023274;28;20090;-69
2022/04/13 02:40:24;;;;;;;7.75;3.80;;;;;;;12.09;62.34;101134.94;5017274;28;20524;-70
2022/04/13 02:42:52;;;;;;;7.38;3.53;;;;;;;12.10;62.34;101139.31;5031560;28;20042;-69
2022/04/13 02:45:19;;;;;;;9.57;3.80;;;;;;;12.11;62.04;101138.41;5030523;28;20054;-68
2022/04/13 02:47:46;;;;;;;9.65;3.65;;;;;;;12.14;62.14;101139.22;5024744;28;20862;-67
2022/04/13 02:50:16;;;;;;;9.07;3.83;;;;;;;12.16;62.24;101146.19;5025628;28;20039;-68
2022/04/13 02:52:44;;;;;;;14.05;3.72;;;;;;;12.19;62.32;101146.09;5024608;28;20522;-66
2022/04/13 02:55:12;;;;;;;9.10;3.35;;;;;;;12.21;62.32;101154.81;5025536;28;20048;-68
2022/04/13 02:57:40;;;;;;;10.70;3.80;;;;;;;12.23;62.27;101157.44;5026947;28;20050;-67
2022/04/13 03:00:08;;;;;;;11.75;4.00;;;;;;;12.24;62.40;101157.38;5026452;28;20042;-67
2022/04/13 03:02:35;;;;;;;6.15;3.70;;;;;;;12.26;62.13;101162.59;5024940;28;20042;-66
2022/04/13 03:05:05;;;;;;;7.80;3.75;;;;;;;12.29;62.11;101169.56;5024559;28;20045;-67
2022/04/13 03:07:32;;;;;;;7.13;3.58;;;;;;;12.32;62.14;101169.47;5026598;28;20549;-68
2022/04/13 03:10:00;;;;;;;8.93;3.83;;;;;;;12.34;62.26;101172.91;5024994;28;20042;-67
2022/04/13 03:12:27;;;;;;;9.43;3.78;;;;;;;12.34;62.25;101171.16;5025538;28;20048;-67
2022/04/13 03:14:55;;;;;;;8.77;4.10;;;;;;;12.35;62.26;101179.94;5024744;28;20555;-68
2022/04/13 03:17:22;;;;;;;9.95;4.15;;;;;;;12.32;62.22;101178.28;5026573;28;20041;-67
2022/04/13 03:19:49;;;;;;;8.98;3.83;;;;;;;12.32;62.18;101180.03;5024137;28;20101;-67
2022/04/13 03:22:16;;;;;;;11.80;4.38;;;;;;;12.29;62.25;101177.50;5023790;28;20425;-69
2022/04/13 03:24:43;;;;;;;11.95;4.38;;;;;;;12.27;62.51;101178.41;5024412;28;20042;-67
2022/04/13 03:27:11;;;;;;;13.02;4.30;;;;;;;12.25;62.54;101190.81;5025966;28;20535;-68
2022/04/13 03:29:38;;;;;;;8.25;4.13;;;;;;;12.25;62.65;101176.75;5026451;28;20042;-68
2022/04/13 03:32:06;;;;;;;10.20;4.65;;;;;;;12.24;62.76;101181.16;5024776;28;20075;-68
2022/04/13 03:34:33;;;;;;;9.05;4.00;;;;;;;12.23;62.72;101181.22;5024032;28;20832;-67
2022/04/13 03:37:00;;;;;;;12.20;4.75;;;;;;;12.18;62.83;101184.00;5024366;28;20034;-69
2022/04/13 03:39:29;;;;;;;10.85;4.65;;;;;;;12.13;62.79;101179.78;5024516;28;20044;-67
2022/04/13 03:41:56;;;;;;;11.80;4.57;;;;;;;12.07;63.30;101194.88;5024922;28;20050;-69
2022/04/13 03:44:23;;;;;;;12.45;4.95;;;;;;;11.98;63.46;101192.53;5024909;28;20040;-70
2022/04/13 03:46:50;;;;;;;11.13;4.80;;;;;;;11.92;63.56;101198.84;5023264;28;20073;-64
2022/04/13 03:49:17;;;;;;;11.40;4.50;;;;;;;11.85;63.70;101199.94;5024639;28;20048;-67
2022/04/13 03:51:44;;;;;;;11.25;5.30;;;;;;;11.82;63.83;101200.03;5025186;28;20042;-67
2022/04/13 03:54:12;;;;;;;12.82;4.57;;;;;;;11.77;64.09;101196.66;5025789;28;20041;-68
2022/04/13 03:56:39;;;;;;;11.10;4.95;;;;;;;11.73;64.01;101200.28;5024738;28;20046;-67
2022/04/13 03:59:07;;;;;;;13.02;4.70;;;;;;;11.67;64.14;101195.22;5024499;28;20030;-66
2022/04/13 04:01:35;;;;;;;13.27;5.60;;;;;;;11.62;64.40;101193.56;5023695;28;20046;-67
2022/04/13 04:04:03;;;;;;;11.52;4.47;;;;;;;11.58;64.46;101193.69;5024511;28;20053;-66
2022/04/13 04:06:30;;;;;;;10.68;4.43;;;;;;;11.51;64.70;101190.34;5024421;28;20046;-68
2022/04/13 04:08:57;;;;;;;14.40;4.95;;;;;;;11.44;64.87;101194.97;5026188;28;21286;-66
2022/04/13 04:11:24;;;;;;;15.13;5.20;;;;;;;11.37;64.98;101197.81;5023949;28;20042;-66
2022/04/13 04:13:51;;;;;;;14.93;5.10;;;;;;;11.29;64.89;101198.03;5024507;28;20628;-67
2022/04/13 04:16:18;;;;;;;12.88;5.00;;;;;;;11.18;65.25;101188.63;5023779;28;20047;-65
2022/04/13 04:18:45;;;;;;;16.38;4.82;;;;;;;11.10;65.26;101201.16;5035333;28;20088;-65
2022/04/13 04:21:12;;;;;;;11.98;4.93;;;;;;;11.02;65.67;101204.00;5035000;28;20052;-66
2022/04/13 04:23:39;;;;;;;12.30;5.18;;;;;;;10.94;65.56;101207.72;5034701;28;20526;-66
2022/04/13 04:26:06;;;;;;;18.70;5.43;;;;;;;10.84;65.93;101204.47;5033553;28;20053;-66
2022/04/13 04:28:33;;;;;;;13.10;5.30;;;;;;;10.75;66.15;101205.56;5036166;28;20085;-68
2022/04/13 04:31:02;;;;;;;14.00;5.43;;;;;;;10.67;66.24;101212.81;5028775;28;20085;-66
2022/04/13 04:33:30;;;;;;;15.98;5.00;;;;;;;10.60;66.53;101219.16;5028586;28;20064;-68
2022/04/13 04:35:57;;;;;;;13.00;4.63;;;;;;;10.52;66.76;101214.94;5031196;28;20050;-66
2022/04/13 04:38:26;;;;;;;13.07;5.28;;;;;;;10.46;66.55;101220.34;5029092;28;20045;-67
2022/04/13 04:40:54;;;;;;;10.70;5.00;;;;;;;10.38;66.86;101222.28;5032235;28;20050;-66
2022/04/13 04:43:21;;;;;;;9.23;5.45;;;;;;;10.31;67.00;101232.06;5031686;28;20096;-67
2022/04/13 04:45:48;;;;;;;11.35;5.40;;;;;;;10.26;67.36;101239.22;5032640;28;20046;-67
2022/04/13 04:48:15;;;;;;;14.07;5.38;;;;;;;10.21;67.38;101244.59;5028418;28;20186;-70
2022/04/13 04:50:42;;;;;;;8.70;5.60;;;;;;;10.15;67.44;101243.88;5030828;28;20053;-68
2022/04/13 04:53:09;;;;;;;9.57;4.63;;;;;;;10.10;67.49;101250.09;5032046;28;20048;-68
2022/04/13 04:55:37;;;;;;;8.77;4.97;;;;;;;10.06;67.72;101258.97;5032252;28;20092;-68
2022/04/13 04:58:04;;;;;;;20.20;6.18;;;;;;;10.03;67.93;101258.16;5031157;28;20495;-68
2022/04/13 05:00:36;;;;;;;20.35;6.10;;;;;;;10.04;68.51;101263.41;5028604;28;20607;-69
2022/04/13 05:03:04;;;;;;;18.95;6.05;;;;;;;10.05;68.10;101261.63;5027251;28;20046;-68
2022/04/13 05:05:39;;;;;;;12.27;5.75;;;;;;;10.07;68.51;101267.75;5028564;28;20116;-68
2022/04/13 05:08:08;;;;;;;20.95;6.40;;;;;;;10.07;68.24;101273.84;5029792;28;20034;-68
2022/04/13 05:10:36;;;;;;;18.13;5.78;;;;;;;10.09;68.57;101277.34;5030251;28;20046;-68
2022/04/13 05:13:03;;;;;;;38.20;7.07;;;;;;;10.10;68.46;101286.13;5031075;28;20041;-68
2022/04/13 05:15:32;;;;;;;39.83;7.15;;;;;;;10.13;68.82;101285.19;5030361;28;20065;-68
2022/04/13 05:17:59;;;;;;;26.02;6.97;;;;;;;10.17;68.99;101292.13;5024946;28;20054;-71
2022/04/13 05:20:26;;;;;;;25.08;7.53;;;;;;;10.18;69.00;101291.22;5030299;28;20086;-69
2022/04/13 05:22:53;;;;;;;25.33;6.18;;;;;;;10.23;69.14;101297.25;5031856;28;20065;-69
2022/04/13 05:25:21;;;;;;;14.48;6.05;;;;;;;10.25;68.76;101298.94;5031342;28;20042;-68
2022/04/13 05:27:49;;;;;;;18.77;6.35;;;;;;;10.29;68.72;101302.38;5025874;28;20049;-68
2022/04/13 05:30:16;;;;;;;14.30;6.60;;;;;;;10.33;68.36;101298.78;5029520;28;20046;-68
2022/04/13 05:32:49;;;;;;;15.00;5.95;;;;;;;10.40;68.37;101300.41;5029583;28;20046;-69
2022/04/13 05:35:17;;;;;;;12.30;6.17;;;;;;;10.46;68.31;101302.06;5029197;28;20038;-69
2022/04/13 05:37:45;;;;;;;13.52;6.80;;;;;;;10.53;68.35;101308.06;5030171;28;20044;-68
2022/04/13 05:40:13;;;;;;;17.88;6.28;;;;;;;10.62;68.26;101305.22;5030697;28;20134;-68
2022/04/13 05:42:41;;;;;;;17.33;6.45;;;;;;;10.71;68.40;101310.25;5029565;28;20050;-69
2022/04/13 05:45:11;;;;;;;21.02;6.60;;;;;;;10.80;68.01;101311.81;5024753;28;20034;-69
2022/04/13 05:47:38;;;;;;;13.27;6.05;;;;;;;10.92;67.87;101305.38;5040677;28;20042;-68
2022/04/13 05:50:07;;;;;;;15.23;6.47;;;;;;;11.05;68.04;101313.00;5028484;28;20034;-68
2022/04/13 05:52:34;;;;;;;12.88;5.60;;;;;;;11.17;67.71;101315.34;5028884;28;20042;-69
2022/04/13 05:55:04;;;;;;;14.35;5.82;;;;;;;11.31;67.71;101317.63;5029646;28;20045;-68
2022/04/13 05:57:31;;;;;;;33.33;7.85;;;;;;;11.44;67.53;101320.81;5029785;28;20041;-68
2022/04/13 05:59:58;;;;;;;23.95;7.57;;;;;;;11.57;67.47;101324.88;5030412;28;20116;-70
2022/04/13 06:02:25;;;;;;;20.42;6.88;;;;;;;11.71;67.24;101329.78;5034550;28;20076;-68
2022/04/13 06:04:52;;;;;;;19.98;7.40;;;;;;;11.88;67.10;101333.72;5041173;28;20050;-69
2022/04/13 06:07:19;;;;;;;17.02;7.53;;;;;;;12.04;66.76;101329.78;5031018;28;20045;-68
2022/04/13 06:09:46;;;;;;;19.00;7.63;;;;;;;12.25;66.66;101335.34;5030044;28;20034;-69
2022/04/13 06:12:22;;;;;;;20.40;7.53;;;;;;;12.45;66.27;101324.16;5028907;28;20820;-68
2022/04/13 06:14:50;;;;;;;18.63;8.30;;;;;;;12.64;66.06;101334.16;5020380;28;20054;-68
2022/04/13 06:17:17;;;;;;;21.35;7.20;;;;;;;12.86;65.69;101337.03;5027414;28;20038;-68
2022/04/13 06:19:44;;;;;;;27.80;8.65;;;;;;;13.09;65.52;101344.22;5011781;28;20042;-68
2022/04/13 06:22:11;;;;;;;29.67;9.70;;;;;;;13.31;65.17;101347.00;5016260;28;20405;-68
2022/04/13 06:24:38;;;;;;;39.20;9.50;;;;;;;13.54;64.75;101349.81;5031103;28;20100;-68
2022/04/13 06:27:05;;;;;;;21.25;9.65;;;;;;;13.75;64.19;101353.50;5011872;28;20562;-69
2022/04/13 06:29:32;;;;;;;32.85;9.60;;;;;;;13.92;63.81;101361.72;5030195;28;20036;-70
2022/04/13 06:31:59;;;;;;;28.63;9.00;;;;;;;14.07;63.38;101359.44;5031355;28;20046;-68
2022/04/13 06:34:26;;;;;;;28.17;9.38;;;;;;;14.20;63.07;101357.19;5031409;28;20141;-69
2022/04/13 06:36:53;;;;;;;24.95;9.48;;;;;;;14.33;62.92;101361.13;5035253;28;20042;-69
2022/04/13 06:39:20;;;;;;;22.05;8.70;;;;;;;14.49;62.46;101352.56;5034598;28;20050;-68
2022/04/13 06:41:47;;;;;;;26.00;8.73;;;;;;;14.67;62.25;101367.78;5034143;28;20516;-70
2022/04/13 06:44:14;;;;;;;20.15;8.20;;;;;;;14.82;61.76;101362.81;5034627;28;20060;-69
2022/04/13 06:46:41;;;;;;;21.88;9.48;;;;;;;14.98;61.32;101358.59;5034399;28;20046;-69
2022/04/13 06:49:15;;;;;;;18.63;8.43;;;;;;;15.17;61.05;101361.38;5034095;28;20046;-67
2022/04/13 06:51:42;;;;;;;24.60;9.10;;;;;;;15.35;60.97;101366.84;5031024;28;20244;-69
2022/04/13 06:54:09;;;;;;;24.70;8.50;;;;;;;15.56;60.76;101374.84;5016404;28;20046;-69
2022/04/13 06:56:39;;;;;;;25.05;9.02;;;;;;;15.80;60.18;101373.78;5024170;28;20093;-69
2022/04/13 06:59:06;;;;;;;24.70;9.15;;;;;;;16.02;60.08;101369.31;5013388;28;20457;-69
2022/04/13 07:01:34;;;;;;;18.80;9.13;;;;;;;16.18;59.30;101370.34;5023322;28;20060;-69
2022/04/13 07:04:01;;;;;;;19.40;8.57;;;;;;;16.23;59.30;101379.00;5034062;28;20041;-69
2022/04/13 07:06:28;;;;;;;19.17;8.75;;;;;;;16.26;59.37;101383.31;5033915;28;20492;-69
2022/04/13 07:09:15;;;;;;;21.45;8.90;;;;;;;16.28;59.35;101392.09;5013650;28;20050;-69
2022/04/13 07:11:42;;;;;;;14.48;9.20;;;;;;;16.33;59.18;101391.88;5016555;28;20042;-69
2022/04/13 07:14:10;;;;;;;17.52;8.25;;;;;;;16.36;58.70;101387.28;5032518;28;20057;-68
2022/04/13 07:16:37;;;;;;;15.32;8.70;;;;;;;16.47;58.89;101384.13;5033985;28;20038;-68
2022/04/13 07:19:04;;;;;;;20.23;8.95;;;;;;;16.59;58.76;101385.34;5033079;28;20042;-68
2022/04/13 07:21:31;;;;;;;19.92;8.98;;;;;;;16.76;58.69;101403.19;5032899;28;20049;-70
2022/04/13 07:24:18;;;;;;;17.23;8.45;;;;;;;17.05;58.01;101395.63;5033572;28;20046;-69
2022/04/13 07:26:45;;;;;;;17.23;8.32;;;;;;;17.27;57.67;101406.09;5033083;28;20068;-69
2022/04/13 07:29:12;;;;;;;16.00;8.20;;;;;;;17.47;57.01;101410.44;5034307;28;20038;-69
2022/04/13 07:31:39;;;;;;;23.45;8.90;;;;;;;17.70;57.11;101414.59;5033783;28;20049;-69
2022/04/13 07:34:06;;;;;;;14.32;8.23;;;;;;;17.99;56.46;101414.91;5033747;28;20042;-69
2022/04/13 07:36:34;;;;;;;25.05;9.40;;;;;;;18.15;55.71;101427.44;5033637;28;20041;-69
2022/04/13 07:39:02;;;;;;;14.32;8.10;;;;;;;18.20;55.94;101417.38;5033363;28;20061;-69
2022/04/13 07:41:29;;;;;;;19.08;8.80;;;;;;;18.34;55.44;101431.78;5033244;28;20040;-71
2022/04/13 07:43:57;;;;;;;16.45;7.80;;;;;;;18.36;55.14;101425.41;5032921;28;20761;-69
2022/04/13 07:46:27;;;;;;;13.77;7.65;;;;;;;18.34;54.86;101429.97;5032895;28;20054;-69
2022/04/13 07:48:55;;;;;;;12.82;8.45;;;;;;;18.21;55.40;101437.78;5033684;28;20081;-70
2022/04/13 07:51:22;;;;;;;20.05;8.93;;;;;;;18.17;55.65;101441.53;5033413;28;20508;-70
2022/04/13 07:53:49;;;;;;;13.00;8.52;;;;;;;18.23;55.82;101443.91;5032574;28;20522;-70
2022/04/13 07:56:16;;;;;;;18.48;9.07;;;;;;;18.10;56.33;101453.50;5017729;28;20600;-70
2022/04/13 07:58:43;;;;;;;20.00;9.10;;;;;;;17.95;56.74;101444.44;5013232;28;20042;-69
2022/04/13 08:01:10;;;;;;;14.73;9.18;;;;;;;17.79;57.31;101450.59;5013537;28;20246;-70
2022/04/13 08:03:38;;;;;;;17.63;9.23;;;;;;;17.55;57.72;101452.66;5013520;28;20097;-69
2022/04/13 08:06:05;;;;;;;20.83;9.98;;;;;;;17.31;58.45;101454.75;5013006;28;20042;-69
2022/04/13 08:08:32;;;;;;;15.98;9.60;;;;;;;17.14;58.81;101448.44;5013633;28;20042;-69
2022/04/13 08:10:59;;;;;;;26.10;11.43;;;;;;;17.18;58.59;101454.50;5013494;28;20591;-69
2022/04/13 08:13:26;;;;;;;17.35;10.15;;;;;;;17.28;58.63;101458.44;5017436;28;20049;-69
2022/04/13 08:16:13;;;;;;;19.77;10.68;;;;;;;17.39;58.42;101450.78;5032818;28;20042;-69
2022/04/13 08:18:40;;;;;;;27.38;11.52;;;;;;;17.56;58.32;101449.06;5023481;28;20070;-69
2022/04/13 08:21:07;;;;;;;16.25;10.57;;;;;;;17.75;57.88;101461.50;5031592;28;20038;-69
2022/04/13 08:23:34;;;;;;;25.60;11.20;;;;;;;17.88;57.67;101475.06;5032953;28;20053;-70
2022/04/13 08:26:01;;;;;;;22.27;11.25;;;;;;;18.00;57.07;101480.66;5032942;28;20038;-69
2022/04/13 08:28:35;;;;;;;16.70;11.07;;;;;;;18.05;56.90;101475.06;5032616;28;20045;-69
2022/04/13 08:31:04;;;;;;;23.97;11.37;;;;;;;18.06;56.52;101481.28;5032275;28;20515;-70
2022/04/13 08:33:32;;;;;;;25.50;11.20;;;;;;;18.20;56.56;101480.56;5025687;28;20038;-69
2022/04/13 08:36:00;;;;;;;40.58;13.18;;;;;;;18.41;56.43;101483.91;5032786;28;20041;-69
2022/04/13 08:38:27;;;;;;;24.75;11.18;;;;;;;18.54;55.91;101482.31;5032742;28;20048;-70
2022/04/13 08:41:00;;;;;;;25.00;10.63;;;;;;;18.69;55.33;101487.75;5032245;28;20112;-69
2022/04/13 08:43:51;;;;;;;19.83;10.02;;;;;;;18.71;54.29;101488.53;5031649;28;20042;-70
2022/04/13 08:46:25;;;;;;;18.27;9.43;;;;;;;18.70;54.61;101482.34;5031550;28;20045;-71
2022/04/13 08:48:56;;;;;;;19.88;9.93;;;;;;;18.86;54.74;101485.03;5012860;28;20069;-70
2022/04/13 08:51:45;;;;;;;21.90;10.68;;;;;;;19.04;54.34;101483.16;5025451;28;20094;-70
2022/04/13 08:54:22;;;;;;;26.80;10.85;;;;;;;19.33;53.85;101477.13;5031655;28;20053;-69
2022/04/13 08:56:54;;;;;;;15.07;11.07;;;;;;;19.63;53.08;101487.88;5032535;28;20109;-70
2022/04/13 08:59:52;;;;;;;20.45;11.48;;;;;;;19.78;52.76;101490.56;5030871;28;20041;-70
2022/04/13 09:02:43;;;;;;;20.50;11.27;;;;;;;19.97;51.66;101495.75;5030374;28;20121;-70
2022/04/13 09:05:15;;;;;;;43.00;12.45;;;;;;;20.08;51.94;101498.63;5027487;28;20057;-70
2022/04/13 09:07:46;;;;;;;14.02;9.95;;;;;;;20.09;51.46;101497.69;5011600;28;20487;-70
2022/04/13 09:10:21;;;;;;;22.75;9.13;;;;;;;20.07;51.30;101496.91;5019764;28;20038;-69
2022/04/13 09:12:51;;;;;;;12.25;8.57;;;;;;;20.07;50.85;101499.59;5031533;28;20038;-70
2022/04/13 09:15:20;;;;;;;16.33;7.90;;;;;;;19.97;50.45;101498.41;5031770;28;20061;-69
2022/04/13 09:17:55;;;;;;;11.85;6.18;;;;;;;20.15;51.07;101502.66;5030566;28;20596;-69
2022/04/13 09:20:23;;;;;;;10.07;5.35;;;;;;;20.29;50.14;101509.00;5032337;28;20042;-70
2022/04/13 09:22:52;;;;;;;15.63;6.10;;;;;;;20.22;50.43;101503.16;5032055;28;20042;-69
2022/04/13 09:25:21;;;;;;;16.25;6.32;;;;;;;20.11;50.49;101501.09;5031641;28;20045;-69
2022/04/13 09:27:50;;;;;;;14.43;5.85;;;;;;;19.96;50.46;101500.22;5031305;28;20042;-70
2022/04/13 09:30:17;;;;;;;22.25;7.38;;;;;;;19.95;50.88;101511.00;5031969;28;20077;-70
2022/04/13 09:32:45;;;;;;;13.98;7.75;;;;;;;20.00;50.62;101515.13;5025810;28;20041;-69
2022/04/13 09:35:12;;;;;;;14.35;7.15;;;;;;;20.00;50.75;101514.25;5031554;28;20046;-69
2022/04/13 09:37:40;;;;;;;16.45;6.70;;;;;;;20.10;50.35;101512.75;5030806;28;20788;-69
2022/04/13 09:40:08;;;;;;;13.20;6.55;;;;;;;20.20;50.80;101509.53;5031238;28;20053;-70
2022/04/13 09:42:37;;;;;;;21.65;7.78;;;;;;;20.47;50.63;101512.34;5031209;28;20046;-70
2022/04/13 09:45:05;;;;;;;19.77;6.60;;;;;;;20.70;50.25;101528.81;5030818;28;20065;-69
2022/04/13 09:47:33;;;;;;;22.15;8.05;;;;;;;20.86;49.91;101524.22;5022064;28;20046;-69
2022/04/13 09:50:01;;;;;;;15.90;7.43;;;;;;;20.97;49.32;101528.03;5011762;28;20105;-69
2022/04/13 09:52:39;;;;;;;31.73;8.73;;;;;;;20.88;48.90;101529.50;5011587;28;20073;-71
2022/04/13 09:55:08;;;;;;;19.80;8.57;;;;;;;20.70;49.62;101526.13;5011505;28;20530;-70
2022/04/13 09:57:35;;;;;;;16.00;8.27;;;;;;;20.71;50.14;101526.03;5023930;28;20113;-70
2022/04/13 10:00:06;;;;;;;26.65;10.00;;;;;;;20.77;50.12;101532.84;5030434;28;20120;-70
2022/04/13 10:02:44;;;;;;;29.05;9.15;;;;;;;20.67;49.98;101534.34;5030463;28;20054;-70
2022/04/13 10:05:14;;;;;;;15.98;7.85;;;;;;;20.58;50.40;101536.66;5032061;28;20484;-69
2022/04/13 10:07:41;;;;;;;14.15;8.05;;;;;;;20.64;49.48;101538.09;5031130;28;20595;-69
2022/04/13 10:10:24;;;;;;;17.00;8.70;;;;;;;20.41;50.12;101529.63;5033049;28;20038;-70
2022/04/13 10:12:54;;;;;;;25.08;9.00;;;;;;;20.41;50.51;101543.03;5034337;28;20566;-69
2022/04/13 10:15:23;;;;;;;23.08;10.05;;;;;;;20.44;50.77;101540.16;5030662;28;20058;-69
2022/04/13 10:18:00;;;;;;;17.45;8.45;;;;;;;20.49;50.42;101542.56;5034824;28;20052;-70
2022/04/13 10:20:45;;;;;;;24.13;9.55;;;;;;;20.32;50.57;101556.97;5034592;28;20046;-69
2022/04/13 10:23:14;;;;;;;30.83;10.77;;;;;;;20.16;51.20;101551.69;5034412;28;20045;-69
2022/04/13 10:25:43;;;;;;;15.90;9.95;;;;;;;20.11;51.29;101553.78;5034981;28;20046;-69
2022/04/13 10:28:14;;;;;;;20.42;9.55;;;;;;;20.12;51.48;101556.34;5034074;28;20128;-69
2022/04/13 10:30:42;;;;;;;33.40;10.50;;;;;;;20.10;51.51;101552.91;5028303;28;20097;-69
2022/04/13 10:33:12;;;;;;;22.60;10.27;;;;;;;20.05;51.74;101554.13;5030869;28;20053;-71
2022/04/13 10:35:44;;;;;;;20.23;10.27;;;;;;;19.95;51.62;101552.00;5034344;28;20049;-71
2022/04/13 10:38:12;;;;;;;16.17;10.18;;;;;;;19.81;52.07;101563.47;5034299;28;20038;-71
2022/04/13 10:40:42;;;;;;;15.77;9.98;;;;;;;19.71;51.99;101555.13;5034508;28;20042;-69
2022/04/13 10:43:12;;;;;;;16.45;9.43;;;;;;;19.63;52.27;101560.06;5033378;28;20050;-69
2022/04/13 10:45:45;;;;;;;16.75;8.90;;;;;;;19.58;52.36;101548.75;5019229;28;20043;-69
2022/04/13 10:48:31;;;;;;;16.45;8.70;;;;;;;19.64;52.29;101553.75;5018571;28;20038;-70
2022/04/13 10:51:11;;;;;;;18.60;8.98;;;;;;;19.91;52.05;101554.94;5032674;28;20046;-69
2022/04/13 10:53:59;;;;;;;21.65;8.90;;;;;;;20.25;51.20;101561.00;5033654;28;20042;-70
2022/04/13 10:56:30;;;;;;;12.25;7.70;;;;;;;20.50;50.64;101563.03;5033914;28;20038;-70
2022/04/13 10:59:15;;;;;;;18.52;8.25;;;;;;;20.47;49.51;101564.09;5029579;28;20046;-70
2022/04/13 11:01:53;;;;;;;11.65;7.63;;;;;;;20.30;50.60;101565.09;5032775;28;20050;-70
2022/04/13 11:04:22;;;;;;;16.70;7.72;;;;;;;20.33;50.40;101562.25;5033321;28;20034;-70
2022/04/13 11:06:51;;;;;;;12.15;7.63;;;;;;;20.48;49.92;101572.97;5034104;28;20152;-70
2022/04/13 11:09:26;;;;;;;15.65;7.90;;;;;;;20.52;49.59;101561.13;5034313;28;20034;-70
2022/04/13 11:11:56;;;;;;;14.13;7.97;;;;;;;20.63;49.96;101564.03;5033253;28;20467;-70
2022/04/13 11:14:24;;;;;;;10.88;7.20;;;;;;;20.55;49.32;101576.16;5033412;28;21207;-70
2022/04/13 11:17:13;;;;;;;24.08;8.48;;;;;;;20.27;50.09;101575.16;5025145;28;20122;-69
2022/04/13 11:19:41;;;;;;;13.85;8.18;;;;;;;20.29;50.04;101575.91;5013969;28;20055;-70
2022/04/13 11:22:16;;;;;;;26.73;9.07;;;;;;;20.28;50.45;101580.41;5013638;28;20068;-70
2022/04/13 11:24:46;;;;;;;20.48;8.63;;;;;;;20.25;50.77;101590.44;5028893;28;20046;-70
2022/04/13 11:27:15;;;;;;;20.25;9.50;;;;;;;20.18;50.97;101589.94;5032908;28;20046;-69
2022/04/13 11:29:45;;;;;;;17.30;9.50;;;;;;;19.97;51.20;101594.75;5033638;28;20464;-70